sensor_id;sensor_type;location;lat;lon;timestamp;temperature;humidity
23267;DHT22;11802;53.160;8.214;2024-03-25T00:02:13;5.70;99.90
23267;DHT22;11802;53.160;8.214;2024-03-25T00:04:40;5.80;99.90
23267;DHT22;11802;53.160;8.214;2024-03-25T00:07:05;5.80;99.90
23267;DHT22;11802;53.160;8.214;2024-03-25T00:09:31;5.90;99.90
23267;DHT22;11802;53.160;8.214;2024-03-25T00:11:57;5.90;99.90
23267;DHT22;11802;53.160;8.214;2024-03-25T00:14:23;5.90;99.90
23267;DHT22;11802;53.160;8.214;2024-03-25T00:16:49;5.80;99.90
23267;DHT22;11802;53.160;8.214;2024-03-25T00:19:15;5.70;99.90
23267;DHT22;11802;53.160;8.214;2024-03-25T00:21:41;5.70;99.90
23267;DHT22;11802;53.160;8.214;2024-03-25T00:24:08;5.50;99.90
23267;DHT22;11802;53.160;8.214;2024-03-25T00:26:33;5.40;99.90
23267;DHT22;11802;53.160;8.214;2024-03-25T00:28:59;5.40;99.90
23267;DHT22;11802;53.160;8.214;2024-03-25T00:31:25;5.30;99.90
23267;DHT22;11802;53.160;8.214;2024-03-25T00:33:50;5.20;99.90
23267;DHT22;11802;53.160;8.214;2024-03-25T00:36:16;5.10;99.90
23267;DHT22;11802;53.160;8.214;2024-03-25T00:38:43;5.00;99.90
23267;DHT22;11802;53.160;8.214;2024-03-25T00:41:09;4.90;99.90
23267;DHT22;11802;53.160;8.214;2024-03-25T00:43:34;4.90;99.90
23267;DHT22;11802;53.160;8.214;2024-03-25T00:46:00;4.80;99.90
23267;DHT22;11802;53.160;8.214;2024-03-25T00:48:25;4.80;99.90
23267;DHT22;11802;53.160;8.214;2024-03-25T00:50:51;4.80;99.90
23267;DHT22;11802;53.160;8.214;2024-03-25T00:53:17;4.60;99.90
23267;DHT22;11802;53.160;8.214;2024-03-25T00:55:44;4.60;99.90
23267;DHT22;11802;53.160;8.214;2024-03-25T00:58:09;4.50;99.90
23267;DHT22;11802;53.160;8.214;2024-03-25T01:00:35;4.50;99.90
23267;DHT22;11802;53.160;8.214;2024-03-25T01:03:01;4.50;99.90
23267;DHT22;11802;53.160;8.214;2024-03-25T01:05:26;4.50;99.90
23267;DHT22;11802;53.160;8.214;2024-03-25T01:07:52;4.50;99.90
23267;DHT22;11802;53.160;8.214;2024-03-25T01:10:17;4.50;99.90
23267;DHT22;11802;53.160;8.214;2024-03-25T01:12:43;4.40;99.90
23267;DHT22;11802;53.160;8.214;2024-03-25T01:15:08;4.40;99.90
23267;DHT22;11802;53.160;8.214;2024-03-25T01:17:37;4.50;99.90
23267;DHT22;11802;53.160;8.214;2024-03-25T01:20:03;4.50;99.90
23267;DHT22;11802;53.160;8.214;2024-03-25T01:22:30;4.50;99.90
23267;DHT22;11802;53.160;8.214;2024-03-25T01:24:56;4.60;99.90
23267;DHT22;11802;53.160;8.214;2024-03-25T01:27:22;4.60;99.90
23267;DHT22;11802;53.160;8.214;2024-03-25T01:29:48;4.70;99.90
23267;DHT22;11802;53.160;8.214;2024-03-25T01:32:13;4.80;99.90
23267;DHT22;11802;53.160;8.214;2024-03-25T01:34:39;4.90;99.90
23267;DHT22;11802;53.160;8.214;2024-03-25T01:37:05;4.90;99.90
23267;DHT22;11802;53.160;8.214;2024-03-25T01:39:30;5.00;99.90
23267;DHT22;11802;53.160;8.214;2024-03-25T01:41:56;5.10;99.90
23267;DHT22;11802;53.160;8.214;2024-03-25T01:44:21;5.20;99.90
23267;DHT22;11802;53.160;8.214;2024-03-25T01:46:47;5.20;99.90
23267;DHT22;11802;53.160;8.214;2024-03-25T01:49:13;5.20;99.90
23267;DHT22;11802;53.160;8.214;2024-03-25T01:51:39;5.30;99.90
23267;DHT22;11802;53.160;8.214;2024-03-25T01:54:06;5.30;99.90
23267;DHT22;11802;53.160;8.214;2024-03-25T01:56:33;5.30;99.90
23267;DHT22;11802;53.160;8.214;2024-03-25T01:59:00;5.30;99.90
23267;DHT22;11802;53.160;8.214;2024-03-25T02:01:27;5.40;99.90
23267;DHT22;11802;53.160;8.214;2024-03-25T02:03:53;5.30;99.90
23267;DHT22;11802;53.160;8.214;2024-03-25T02:06:20;5.30;99.90
23267;DHT22;11802;53.160;8.214;2024-03-25T02:08:47;5.40;99.90
23267;DHT22;11802;53.160;8.214;2024-03-25T02:11:14;5.40;99.90
23267;DHT22;11802;53.160;8.214;2024-03-25T02:13:40;5.40;99.90
23267;DHT22;11802;53.160;8.214;2024-03-25T02:16:06;5.40;99.90
23267;DHT22;11802;53.160;8.214;2024-03-25T02:18:32;5.40;99.90
23267;DHT22;11802;53.160;8.214;2024-03-25T02:20:58;5.50;99.90
23267;DHT22;11802;53.160;8.214;2024-03-25T02:23:24;5.50;99.90
23267;DHT22;11802;53.160;8.214;2024-03-25T02:25:51;5.50;99.90
23267;DHT22;11802;53.160;8.214;2024-03-25T02:28:17;5.50;99.90
23267;DHT22;11802;53.160;8.214;2024-03-25T02:30:43;5.50;99.90
23267;DHT22;11802;53.160;8.214;2024-03-25T02:33:08;5.50;99.90
23267;DHT22;11802;53.160;8.214;2024-03-25T02:35:34;5.50;99.90
23267;DHT22;11802;53.160;8.214;2024-03-25T02:38:01;5.40;99.90
23267;DHT22;11802;53.160;8.214;2024-03-25T02:40:27;5.30;99.90
23267;DHT22;11802;53.160;8.214;2024-03-25T02:42:53;5.20;99.90
23267;DHT22;11802;53.160;8.214;2024-03-25T02:45:18;5.10;99.90
23267;DHT22;11802;53.160;8.214;2024-03-25T02:47:46;5.00;99.90
23267;DHT22;11802;53.160;8.214;2024-03-25T02:50:12;4.90;99.90
23267;DHT22;11802;53.160;8.214;2024-03-25T02:52:37;4.90;99.90
23267;DHT22;11802;53.160;8.214;2024-03-25T02:55:03;4.90;99.90
23267;DHT22;11802;53.160;8.214;2024-03-25T02:57:29;4.90;99.90
23267;DHT22;11802;53.160;8.214;2024-03-25T02:59:54;4.90;99.90
23267;DHT22;11802;53.160;8.214;2024-03-25T03:02:20;4.90;99.90
23267;DHT22;11802;53.160;8.214;2024-03-25T03:04:45;5.00;99.90
23267;DHT22;11802;53.160;8.214;2024-03-25T03:07:11;5.10;99.90
23267;DHT22;11802;53.160;8.214;2024-03-25T03:09:37;5.10;99.90
23267;DHT22;11802;53.160;8.214;2024-03-25T03:12:02;5.20;99.90
23267;DHT22;11802;53.160;8.214;2024-03-25T03:14:28;5.20;99.90
23267;DHT22;11802;53.160;8.214;2024-03-25T03:16:54;5.20;99.90
23267;DHT22;11802;53.160;8.214;2024-03-25T03:19:25;5.20;99.90
23267;DHT22;11802;53.160;8.214;2024-03-25T03:21:50;5.20;99.90
23267;DHT22;11802;53.160;8.214;2024-03-25T03:24:16;5.20;99.90
23267;DHT22;11802;53.160;8.214;2024-03-25T03:26:42;5.20;99.90
23267;DHT22;11802;53.160;8.214;2024-03-25T03:29:07;5.20;99.90
23267;DHT22;11802;53.160;8.214;2024-03-25T03:31:34;5.10;99.90
23267;DHT22;11802;53.160;8.214;2024-03-25T03:33:59;5.10;99.90
23267;DHT22;11802;53.160;8.214;2024-03-25T03:36:25;5.10;99.90
23267;DHT22;11802;53.160;8.214;2024-03-25T03:38:51;5.00;99.90
23267;DHT22;11802;53.160;8.214;2024-03-25T03:41:17;5.00;99.90
23267;DHT22;11802;53.160;8.214;2024-03-25T03:43:42;5.10;99.90
23267;DHT22;11802;53.160;8.214;2024-03-25T03:46:08;5.10;99.90
23267;DHT22;11802;53.160;8.214;2024-03-25T03:48:34;5.20;99.90
23267;DHT22;11802;53.160;8.214;2024-03-25T03:51:01;5.30;99.90
23267;DHT22;11802;53.160;8.214;2024-03-25T03:53:26;5.30;99.90
23267;DHT22;11802;53.160;8.214;2024-03-25T03:55:57;5.40;99.90
23267;DHT22;11802;53.160;8.214;2024-03-25T03:58:23;5.40;99.90
23267;DHT22;11802;53.160;8.214;2024-03-25T04:00:49;5.30;99.90
23267;DHT22;11802;53.160;8.214;2024-03-25T04:03:15;5.30;99.90
23267;DHT22;11802;53.160;8.214;2024-03-25T04:05:41;5.20;99.90
23267;DHT22;11802;53.160;8.214;2024-03-25T04:08:06;5.20;99.90
23267;DHT22;11802;53.160;8.214;2024-03-25T04:10:33;5.20;99.90
23267;DHT22;11802;53.160;8.214;2024-03-25T04:12:58;5.20;99.90
23267;DHT22;11802;53.160;8.214;2024-03-25T04:15:24;5.20;99.90
23267;DHT22;11802;53.160;8.214;2024-03-25T04:17:49;5.20;99.90
23267;DHT22;11802;53.160;8.214;2024-03-25T04:20:16;5.20;99.90
23267;DHT22;11802;53.160;8.214;2024-03-25T04:22:45;5.20;99.90
23267;DHT22;11802;53.160;8.214;2024-03-25T04:25:11;5.10;99.90
23267;DHT22;11802;53.160;8.214;2024-03-25T04:27:41;5.10;99.90
23267;DHT22;11802;53.160;8.214;2024-03-25T04:30:07;5.20;99.90
23267;DHT22;11802;53.160;8.214;2024-03-25T04:32:34;5.30;99.90
23267;DHT22;11802;53.160;8.214;2024-03-25T04:35:00;5.30;99.90
23267;DHT22;11802;53.160;8.214;2024-03-25T04:37:26;5.30;99.90
23267;DHT22;11802;53.160;8.214;2024-03-25T04:39:53;5.30;99.90
23267;DHT22;11802;53.160;8.214;2024-03-25T04:42:19;5.30;99.90
23267;DHT22;11802;53.160;8.214;2024-03-25T04:44:44;5.30;99.90
23267;DHT22;11802;53.160;8.214;2024-03-25T04:47:10;5.20;99.90
23267;DHT22;11802;53.160;8.214;2024-03-25T04:49:35;5.20;99.90
23267;DHT22;11802;53.160;8.214;2024-03-25T04:52:01;5.10;99.90
23267;DHT22;11802;53.160;8.214;2024-03-25T04:54:28;5.00;99.90
23267;DHT22;11802;53.160;8.214;2024-03-25T04:56:54;4.90;99.90
23267;DHT22;11802;53.160;8.214;2024-03-25T04:59:19;4.80;99.90
23267;DHT22;11802;53.160;8.214;2024-03-25T05:01:45;4.70;99.90
23267;DHT22;11802;53.160;8.214;2024-03-25T05:04:10;4.70;99.90
23267;DHT22;11802;53.160;8.214;2024-03-25T05:06:36;4.80;99.90
23267;DHT22;11802;53.160;8.214;2024-03-25T05:09:01;4.90;99.90
23267;DHT22;11802;53.160;8.214;2024-03-25T05:11:27;4.90;99.90
23267;DHT22;11802;53.160;8.214;2024-03-25T05:13:53;5.00;99.90
23267;DHT22;11802;53.160;8.214;2024-03-25T05:16:19;5.10;99.90
23267;DHT22;11802;53.160;8.214;2024-03-25T05:18:44;5.10;99.90
23267;DHT22;11802;53.160;8.214;2024-03-25T05:21:10;5.10;99.90
23267;DHT22;11802;53.160;8.214;2024-03-25T05:23:36;5.20;99.90
23267;DHT22;11802;53.160;8.214;2024-03-25T05:26:01;5.30;99.90
23267;DHT22;11802;53.160;8.214;2024-03-25T05:28:27;5.30;99.90
23267;DHT22;11802;53.160;8.214;2024-03-25T05:30:52;5.30;99.90
23267;DHT22;11802;53.160;8.214;2024-03-25T05:33:18;5.30;99.90
23267;DHT22;11802;53.160;8.214;2024-03-25T05:35:43;5.20;99.90
23267;DHT22;11802;53.160;8.214;2024-03-25T05:38:09;5.20;99.90
23267;DHT22;11802;53.160;8.214;2024-03-25T05:40:34;5.20;99.90
23267;DHT22;11802;53.160;8.214;2024-03-25T05:43:00;5.30;99.90
23267;DHT22;11802;53.160;8.214;2024-03-25T05:45:25;5.30;99.90
23267;DHT22;11802;53.160;8.214;2024-03-25T05:47:51;5.40;99.90
23267;DHT22;11802;53.160;8.214;2024-03-25T05:50:17;5.40;99.90
23267;DHT22;11802;53.160;8.214;2024-03-25T05:52:42;5.30;99.90
23267;DHT22;11802;53.160;8.214;2024-03-25T05:55:08;5.40;99.90
23267;DHT22;11802;53.160;8.214;2024-03-25T05:57:36;5.40;99.90
23267;DHT22;11802;53.160;8.214;2024-03-25T06:00:02;5.40;99.90
23267;DHT22;11802;53.160;8.214;2024-03-25T06:02:28;5.60;99.90
23267;DHT22;11802;53.160;8.214;2024-03-25T06:04:55;5.70;99.90
23267;DHT22;11802;53.160;8.214;2024-03-25T06:07:22;5.80;99.90
23267;DHT22;11802;53.160;8.214;2024-03-25T06:09:47;5.90;99.90
23267;DHT22;11802;53.160;8.214;2024-03-25T06:12:13;5.90;99.90
23267;DHT22;11802;53.160;8.214;2024-03-25T06:14:39;6.00;99.90
23267;DHT22;11802;53.160;8.214;2024-03-25T06:17:04;6.00;99.90
23267;DHT22;11802;53.160;8.214;2024-03-25T06:19:30;6.00;99.90
23267;DHT22;11802;53.160;8.214;2024-03-25T06:21:56;6.00;99.90
23267;DHT22;11802;53.160;8.214;2024-03-25T06:24:21;6.00;99.90
23267;DHT22;11802;53.160;8.214;2024-03-25T06:26:47;6.10;99.90
23267;DHT22;11802;53.160;8.214;2024-03-25T06:29:12;6.20;99.90
23267;DHT22;11802;53.160;8.214;2024-03-25T06:31:38;6.20;99.90
23267;DHT22;11802;53.160;8.214;2024-03-25T06:34:22;6.40;99.90
23267;DHT22;11802;53.160;8.214;2024-03-25T06:36:48;6.60;99.90
23267;DHT22;11802;53.160;8.214;2024-03-25T06:39:14;6.80;99.90
23267;DHT22;11802;53.160;8.214;2024-03-25T06:41:40;7.00;99.90
23267;DHT22;11802;53.160;8.214;2024-03-25T06:44:06;7.30;99.90
23267;DHT22;11802;53.160;8.214;2024-03-25T06:46:32;7.50;99.90
23267;DHT22;11802;53.160;8.214;2024-03-25T06:48:58;7.50;99.90
23267;DHT22;11802;53.160;8.214;2024-03-25T06:51:23;7.50;81.90
23267;DHT22;11802;53.160;8.214;2024-03-25T06:53:49;7.40;51.90
23267;DHT22;11802;53.160;8.214;2024-03-25T06:56:14;7.40;65.00
23267;DHT22;11802;53.160;8.214;2024-03-25T06:58:40;7.40;93.20
23267;DHT22;11802;53.160;8.214;2024-03-25T07:01:07;7.50;69.40
23267;DHT22;11802;53.160;8.214;2024-03-25T07:03:34;7.60;99.90
23267;DHT22;11802;53.160;8.214;2024-03-25T07:06:00;7.80;99.90
23267;DHT22;11802;53.160;8.214;2024-03-25T07:08:27;8.00;61.30
23267;DHT22;11802;53.160;8.214;2024-03-25T07:10:53;8.20;1.00
23267;DHT22;11802;53.160;8.214;2024-03-25T07:13:19;8.40;1.00
23267;DHT22;11802;53.160;8.214;2024-03-25T07:15:45;8.80;1.00
23267;DHT22;11802;53.160;8.214;2024-03-25T07:18:11;9.00;1.00
23267;DHT22;11802;53.160;8.214;2024-03-25T07:20:38;9.00;1.00
23267;DHT22;11802;53.160;8.214;2024-03-25T07:23:04;9.10;1.00
23267;DHT22;11802;53.160;8.214;2024-03-25T07:25:30;9.00;1.00
23267;DHT22;11802;53.160;8.214;2024-03-25T07:27:55;9.00;1.00
23267;DHT22;11802;53.160;8.214;2024-03-25T07:30:21;9.00;1.00
23267;DHT22;11802;53.160;8.214;2024-03-25T07:32:50;9.00;1.00
23267;DHT22;11802;53.160;8.214;2024-03-25T07:35:15;9.00;1.00
23267;DHT22;11802;53.160;8.214;2024-03-25T07:37:43;9.10;99.90
23267;DHT22;11802;53.160;8.214;2024-03-25T07:40:08;9.10;99.90
23267;DHT22;11802;53.160;8.214;2024-03-25T07:42:35;9.00;61.60
23267;DHT22;11802;53.160;8.214;2024-03-25T07:45:01;9.00;98.00
23267;DHT22;11802;53.160;8.214;2024-03-25T07:47:26;9.00;99.90
23267;DHT22;11802;53.160;8.214;2024-03-25T07:49:52;9.50;1.00
23267;DHT22;11802;53.160;8.214;2024-03-25T07:52:17;10.10;99.90
23267;DHT22;11802;53.160;8.214;2024-03-25T07:54:44;10.50;99.90
23267;DHT22;11802;53.160;8.214;2024-03-25T07:57:09;10.70;99.90
23267;DHT22;11802;53.160;8.214;2024-03-25T07:59:35;10.60;99.90
23267;DHT22;11802;53.160;8.214;2024-03-25T08:02:00;11.50;1.00
23267;DHT22;11802;53.160;8.214;2024-03-25T08:04:26;12.90;1.00
23267;DHT22;11802;53.160;8.214;2024-03-25T08:06:51;14.30;99.90
23267;DHT22;11802;53.160;8.214;2024-03-25T08:09:17;15.90;1.00
23267;DHT22;11802;53.160;8.214;2024-03-25T08:11:43;17.40;99.90
23267;DHT22;11802;53.160;8.214;2024-03-25T08:14:12;18.60;1.00
23267;DHT22;11802;53.160;8.214;2024-03-25T08:16:38;18.90;1.00
23267;DHT22;11802;53.160;8.214;2024-03-25T08:19:04;18.50;99.90
23267;DHT22;11802;53.160;8.214;2024-03-25T08:21:29;18.50;99.90
23267;DHT22;11802;53.160;8.214;2024-03-25T08:23:55;18.70;99.90
23267;DHT22;11802;53.160;8.214;2024-03-25T08:26:20;18.90;99.90
23267;DHT22;11802;53.160;8.214;2024-03-25T08:28:46;19.40;99.90
23267;DHT22;11802;53.160;8.214;2024-03-25T08:31:14;19.20;99.90
23267;DHT22;11802;53.160;8.214;2024-03-25T08:33:39;17.70;99.90
23267;DHT22;11802;53.160;8.214;2024-03-25T08:36:05;16.60;99.90
23267;DHT22;11802;53.160;8.214;2024-03-25T08:38:31;16.00;99.90
23267;DHT22;11802;53.160;8.214;2024-03-25T08:40:56;15.90;99.90
23267;DHT22;11802;53.160;8.214;2024-03-25T08:43:22;16.70;99.90
23267;DHT22;11802;53.160;8.214;2024-03-25T08:45:47;17.00;99.90
23267;DHT22;11802;53.160;8.214;2024-03-25T08:48:13;17.30;99.90
23267;DHT22;11802;53.160;8.214;2024-03-25T08:50:39;17.80;99.90
23267;DHT22;11802;53.160;8.214;2024-03-25T08:53:04;17.90;99.90
23267;DHT22;11802;53.160;8.214;2024-03-25T08:55:30;17.60;99.90
23267;DHT22;11802;53.160;8.214;2024-03-25T08:57:56;16.90;99.90
23267;DHT22;11802;53.160;8.214;2024-03-25T09:00:24;16.80;99.90
23267;DHT22;11802;53.160;8.214;2024-03-25T09:02:50;16.30;99.90
23267;DHT22;11802;53.160;8.214;2024-03-25T09:05:15;15.70;99.90
23267;DHT22;11802;53.160;8.214;2024-03-25T09:07:44;16.10;99.90
23267;DHT22;11802;53.160;8.214;2024-03-25T09:10:10;16.80;99.90
23267;DHT22;11802;53.160;8.214;2024-03-25T09:12:54;17.80;99.90
23267;DHT22;11802;53.160;8.214;2024-03-25T09:15:20;18.00;99.90
23267;DHT22;11802;53.160;8.214;2024-03-25T09:17:45;17.80;99.90
23267;DHT22;11802;53.160;8.214;2024-03-25T09:20:11;17.20;99.90
23267;DHT22;11802;53.160;8.214;2024-03-25T09:22:44;16.30;99.90
23267;DHT22;11802;53.160;8.214;2024-03-25T09:25:10;15.60;99.90
23267;DHT22;11802;53.160;8.214;2024-03-25T09:27:36;15.10;99.90
23267;DHT22;11802;53.160;8.214;2024-03-25T09:30:03;14.90;99.90
23267;DHT22;11802;53.160;8.214;2024-03-25T09:32:33;14.40;99.90
23267;DHT22;11802;53.160;8.214;2024-03-25T09:34:58;14.30;99.90
23267;DHT22;11802;53.160;8.214;2024-03-25T09:37:24;14.10;99.90
23267;DHT22;11802;53.160;8.214;2024-03-25T09:39:50;14.00;99.90
23267;DHT22;11802;53.160;8.214;2024-03-25T09:42:24;13.80;99.90
23267;DHT22;11802;53.160;8.214;2024-03-25T09:44:52;13.50;99.90
23267;DHT22;11802;53.160;8.214;2024-03-25T09:47:18;13.30;99.90
23267;DHT22;11802;53.160;8.214;2024-03-25T09:49:45;13.00;99.90
23267;DHT22;11802;53.160;8.214;2024-03-25T09:52:12;13.10;99.90
23267;DHT22;11802;53.160;8.214;2024-03-25T09:54:37;13.10;99.90
23267;DHT22;11802;53.160;8.214;2024-03-25T09:57:03;13.40;99.90
23267;DHT22;11802;53.160;8.214;2024-03-25T09:59:30;13.70;99.90
23267;DHT22;11802;53.160;8.214;2024-03-25T10:01:56;13.80;99.90
23267;DHT22;11802;53.160;8.214;2024-03-25T10:04:23;13.90;99.90
23267;DHT22;11802;53.160;8.214;2024-03-25T10:06:48;13.90;99.90
23267;DHT22;11802;53.160;8.214;2024-03-25T10:09:19;14.00;99.90
23267;DHT22;11802;53.160;8.214;2024-03-25T10:11:47;13.90;99.90
23267;DHT22;11802;53.160;8.214;2024-03-25T10:14:14;13.90;99.90
23267;DHT22;11802;53.160;8.214;2024-03-25T10:16:39;13.70;99.90
23267;DHT22;11802;53.160;8.214;2024-03-25T10:19:05;13.90;99.90
23267;DHT22;11802;53.160;8.214;2024-03-25T10:21:31;14.30;99.90
23267;DHT22;11802;53.160;8.214;2024-03-25T10:23:56;14.30;99.90
23267;DHT22;11802;53.160;8.214;2024-03-25T10:26:29;14.30;99.90
23267;DHT22;11802;53.160;8.214;2024-03-25T10:29:04;13.90;99.90
23267;DHT22;11802;53.160;8.214;2024-03-25T10:31:33;14.20;99.90
23267;DHT22;11802;53.160;8.214;2024-03-25T10:33:59;13.90;99.90
23267;DHT22;11802;53.160;8.214;2024-03-25T10:36:25;14.20;99.90
23267;DHT22;11802;53.160;8.214;2024-03-25T10:38:56;14.30;99.90
23267;DHT22;11802;53.160;8.214;2024-03-25T10:41:22;14.30;99.90
23267;DHT22;11802;53.160;8.214;2024-03-25T10:43:48;14.30;99.90
23267;DHT22;11802;53.160;8.214;2024-03-25T10:46:22;14.50;99.90
23267;DHT22;11802;53.160;8.214;2024-03-25T10:48:53;14.60;99.90
23267;DHT22;11802;53.160;8.214;2024-03-25T10:51:21;14.80;99.90
23267;DHT22;11802;53.160;8.214;2024-03-25T10:53:49;15.00;99.90
23267;DHT22;11802;53.160;8.214;2024-03-25T10:56:20;15.10;99.90
23267;DHT22;11802;53.160;8.214;2024-03-25T10:58:48;14.80;99.90
23267;DHT22;11802;53.160;8.214;2024-03-25T11:01:17;15.10;99.90
23267;DHT22;11802;53.160;8.214;2024-03-25T11:03:48;15.30;99.90
23267;DHT22;11802;53.160;8.214;2024-03-25T11:06:14;15.40;99.90
23267;DHT22;11802;53.160;8.214;2024-03-25T11:08:40;16.00;99.90
23267;DHT22;11802;53.160;8.214;2024-03-25T11:11:07;16.40;99.90
23267;DHT22;11802;53.160;8.214;2024-03-25T11:13:33;16.70;99.90
23267;DHT22;11802;53.160;8.214;2024-03-25T11:15:59;16.40;99.90
23267;DHT22;11802;53.160;8.214;2024-03-25T11:18:26;16.30;99.90
23267;DHT22;11802;53.160;8.214;2024-03-25T11:21:04;16.10;99.90
23267;DHT22;11802;53.160;8.214;2024-03-25T11:23:44;15.80;99.90
23267;DHT22;11802;53.160;8.214;2024-03-25T11:26:25;15.60;99.90
23267;DHT22;11802;53.160;8.214;2024-03-25T11:28:55;16.00;99.90
23267;DHT22;11802;53.160;8.214;2024-03-25T11:31:22;16.30;99.90
23267;DHT22;11802;53.160;8.214;2024-03-25T11:33:50;16.10;99.90
23267;DHT22;11802;53.160;8.214;2024-03-25T11:36:16;15.90;99.90
23267;DHT22;11802;53.160;8.214;2024-03-25T11:38:43;15.80;99.90
23267;DHT22;11802;53.160;8.214;2024-03-25T11:41:10;15.80;99.90
23267;DHT22;11802;53.160;8.214;2024-03-25T11:43:36;15.80;99.90
23267;DHT22;11802;53.160;8.214;2024-03-25T11:46:02;14.70;99.90
23267;DHT22;11802;53.160;8.214;2024-03-25T11:48:29;14.20;1.00
23267;DHT22;11802;53.160;8.214;2024-03-25T11:50:55;13.60;1.00
23267;DHT22;11802;53.160;8.214;2024-03-25T11:53:20;13.40;1.00
23267;DHT22;11802;53.160;8.214;2024-03-25T11:55:49;13.70;1.00
23267;DHT22;11802;53.160;8.214;2024-03-25T11:58:15;13.80;99.90
23267;DHT22;11802;53.160;8.214;2024-03-25T12:00:45;13.90;99.90
23267;DHT22;11802;53.160;8.214;2024-03-25T12:03:13;13.60;99.90
23267;DHT22;11802;53.160;8.214;2024-03-25T12:05:40;13.50;99.90
23267;DHT22;11802;53.160;8.214;2024-03-25T12:08:08;13.30;99.90
23267;DHT22;11802;53.160;8.214;2024-03-25T12:10:35;13.20;99.90
23267;DHT22;11802;53.160;8.214;2024-03-25T12:13:19;13.30;99.90
23267;DHT22;11802;53.160;8.214;2024-03-25T12:15:46;13.70;99.90
23267;DHT22;11802;53.160;8.214;2024-03-25T12:18:16;14.10;99.90
23267;DHT22;11802;53.160;8.214;2024-03-25T12:20:42;14.20;99.90
23267;DHT22;11802;53.160;8.214;2024-03-25T12:23:08;14.00;99.90
23267;DHT22;11802;53.160;8.214;2024-03-25T12:25:33;14.10;99.90
23267;DHT22;11802;53.160;8.214;2024-03-25T12:27:59;14.20;99.90
23267;DHT22;11802;53.160;8.214;2024-03-25T12:30:25;13.90;99.90
23267;DHT22;11802;53.160;8.214;2024-03-25T12:32:51;14.20;99.90
23267;DHT22;11802;53.160;8.214;2024-03-25T12:35:18;14.50;99.90
23267;DHT22;11802;53.160;8.214;2024-03-25T12:37:45;14.50;99.90
23267;DHT22;11802;53.160;8.214;2024-03-25T12:40:13;14.20;99.90
23267;DHT22;11802;53.160;8.214;2024-03-25T12:42:40;14.40;99.90
23267;DHT22;11802;53.160;8.214;2024-03-25T12:45:06;14.50;99.90
23267;DHT22;11802;53.160;8.214;2024-03-25T12:47:32;14.40;99.90
23267;DHT22;11802;53.160;8.214;2024-03-25T12:49:58;14.20;99.90
23267;DHT22;11802;53.160;8.214;2024-03-25T12:52:25;14.30;99.90
23267;DHT22;11802;53.160;8.214;2024-03-25T12:54:50;14.20;99.90
23267;DHT22;11802;53.160;8.214;2024-03-25T12:57:16;14.30;99.90
23267;DHT22;11802;53.160;8.214;2024-03-25T12:59:41;14.40;99.90
23267;DHT22;11802;53.160;8.214;2024-03-25T13:02:10;14.40;99.90
23267;DHT22;11802;53.160;8.214;2024-03-25T13:04:36;14.50;99.90
23267;DHT22;11802;53.160;8.214;2024-03-25T13:07:03;14.40;99.90
23267;DHT22;11802;53.160;8.214;2024-03-25T13:09:28;14.50;99.90
23267;DHT22;11802;53.160;8.214;2024-03-25T13:11:58;14.70;99.90
23267;DHT22;11802;53.160;8.214;2024-03-25T13:14:24;14.80;99.90
23267;DHT22;11802;53.160;8.214;2024-03-25T13:16:50;15.30;99.90
23267;DHT22;11802;53.160;8.214;2024-03-25T13:19:16;15.70;99.90
23267;DHT22;11802;53.160;8.214;2024-03-25T13:21:42;15.90;99.90
23267;DHT22;11802;53.160;8.214;2024-03-25T13:24:08;15.90;99.90
23267;DHT22;11802;53.160;8.214;2024-03-25T13:26:33;15.70;99.90
23267;DHT22;11802;53.160;8.214;2024-03-25T13:28:59;15.30;99.90
23267;DHT22;11802;53.160;8.214;2024-03-25T13:31:25;14.90;99.90
23267;DHT22;11802;53.160;8.214;2024-03-25T13:33:50;14.40;99.90
23267;DHT22;11802;53.160;8.214;2024-03-25T13:36:17;13.80;99.90
23267;DHT22;11802;53.160;8.214;2024-03-25T13:38:43;13.70;99.90
23267;DHT22;11802;53.160;8.214;2024-03-25T13:41:08;13.70;99.90
23267;DHT22;11802;53.160;8.214;2024-03-25T13:43:34;13.70;99.90
23267;DHT22;11802;53.160;8.214;2024-03-25T13:46:00;13.80;99.90
23267;DHT22;11802;53.160;8.214;2024-03-25T13:48:25;13.90;99.90
23267;DHT22;11802;53.160;8.214;2024-03-25T13:50:54;13.90;99.90
23267;DHT22;11802;53.160;8.214;2024-03-25T13:53:20;14.10;99.90
23267;DHT22;11802;53.160;8.214;2024-03-25T13:55:45;14.20;99.90
23267;DHT22;11802;53.160;8.214;2024-03-25T13:58:11;14.20;99.90
23267;DHT22;11802;53.160;8.214;2024-03-25T14:00:36;14.10;99.90
23267;DHT22;11802;53.160;8.214;2024-03-25T14:03:03;13.90;99.90
23267;DHT22;11802;53.160;8.214;2024-03-25T14:05:29;14.00;99.90
23267;DHT22;11802;53.160;8.214;2024-03-25T14:07:54;14.10;99.90
23267;DHT22;11802;53.160;8.214;2024-03-25T14:10:21;14.00;99.90
23267;DHT22;11802;53.160;8.214;2024-03-25T14:12:46;14.10;99.90
23267;DHT22;11802;53.160;8.214;2024-03-25T14:15:12;14.20;99.90
23267;DHT22;11802;53.160;8.214;2024-03-25T14:17:37;14.00;99.90
23267;DHT22;11802;53.160;8.214;2024-03-25T14:20:03;13.80;99.90
23267;DHT22;11802;53.160;8.214;2024-03-25T14:22:32;13.80;99.90
23267;DHT22;11802;53.160;8.214;2024-03-25T14:24:58;13.70;99.90
23267;DHT22;11802;53.160;8.214;2024-03-25T14:27:24;13.60;99.90
23267;DHT22;11802;53.160;8.214;2024-03-25T14:29:50;13.70;99.90
23267;DHT22;11802;53.160;8.214;2024-03-25T14:32:19;13.70;99.90
23267;DHT22;11802;53.160;8.214;2024-03-25T14:34:45;13.40;99.90
23267;DHT22;11802;53.160;8.214;2024-03-25T14:37:11;13.20;99.90
23267;DHT22;11802;53.160;8.214;2024-03-25T14:39:37;13.10;99.90
23267;DHT22;11802;53.160;8.214;2024-03-25T14:42:02;13.00;99.90
23267;DHT22;11802;53.160;8.214;2024-03-25T14:44:29;13.10;99.90
23267;DHT22;11802;53.160;8.214;2024-03-25T14:46:55;13.10;99.90
23267;DHT22;11802;53.160;8.214;2024-03-25T14:49:20;12.80;99.90
23267;DHT22;11802;53.160;8.214;2024-03-25T14:51:46;12.80;99.90
23267;DHT22;11802;53.160;8.214;2024-03-25T14:54:11;12.90;99.90
23267;DHT22;11802;53.160;8.214;2024-03-25T14:56:37;12.90;99.90
23267;DHT22;11802;53.160;8.214;2024-03-25T14:59:02;12.90;99.90
23267;DHT22;11802;53.160;8.214;2024-03-25T15:01:28;13.00;99.90
23267;DHT22;11802;53.160;8.214;2024-03-25T15:03:56;13.00;99.90
23267;DHT22;11802;53.160;8.214;2024-03-25T15:06:22;12.90;99.90
23267;DHT22;11802;53.160;8.214;2024-03-25T15:08:47;12.80;99.90
23267;DHT22;11802;53.160;8.214;2024-03-25T15:11:13;12.80;99.90
23267;DHT22;11802;53.160;8.214;2024-03-25T15:13:38;12.50;99.90
23267;DHT22;11802;53.160;8.214;2024-03-25T15:16:06;12.40;1.00
23267;DHT22;11802;53.160;8.214;2024-03-25T15:18:31;12.30;1.00
23267;DHT22;11802;53.160;8.214;2024-03-25T15:21:01;12.30;1.00
23267;DHT22;11802;53.160;8.214;2024-03-25T15:23:26;12.10;1.00
23267;DHT22;11802;53.160;8.214;2024-03-25T15:25:52;12.10;1.00
23267;DHT22;11802;53.160;8.214;2024-03-25T15:28:18;12.10;5.20
23267;DHT22;11802;53.160;8.214;2024-03-25T15:30:44;12.00;1.00
23267;DHT22;11802;53.160;8.214;2024-03-25T15:33:09;11.80;1.00
23267;DHT22;11802;53.160;8.214;2024-03-25T15:35:35;11.60;1.00